sensor_id;sensor_type;location;lat;lon;timestamp;temperature;humidity
40670;DHT22;26355;45.528;9.234;2023-08-07T00:00:29;25.10;59.00
40670;DHT22;26355;45.528;9.234;2023-08-07T00:02:55;25.20;59.10
40670;DHT22;26355;45.528;9.234;2023-08-07T00:05:20;25.20;58.90
40670;DHT22;26355;45.528;9.234;2023-08-07T00:07:46;25.20;58.80
40670;DHT22;26355;45.528;9.234;2023-08-07T00:10:11;25.20;58.80
40670;DHT22;26355;45.528;9.234;2023-08-07T00:12:38;25.10;58.70
40670;DHT22;26355;45.528;9.234;2023-08-07T00:15:05;25.10;58.60
40670;DHT22;26355;45.528;9.234;2023-08-07T00:17:31;25.00;58.70
40670;DHT22;26355;45.528;9.234;2023-08-07T00:19:57;25.00;58.60
40670;DHT22;26355;45.528;9.234;2023-08-07T00:22:23;25.00;58.70
40670;DHT22;26355;45.528;9.234;2023-08-07T00:24:48;25.00;58.70
40670;DHT22;26355;45.528;9.234;2023-08-07T00:27:14;24.90;58.70
40670;DHT22;26355;45.528;9.234;2023-08-07T00:29:40;25.00;58.70
40670;DHT22;26355;45.528;9.234;2023-08-07T00:32:06;25.00;58.70
40670;DHT22;26355;45.528;9.234;2023-08-07T00:34:31;25.00;58.70
40670;DHT22;26355;45.528;9.234;2023-08-07T00:36:57;24.90;58.80
40670;DHT22;26355;45.528;9.234;2023-08-07T00:39:24;24.90;58.90
40670;DHT22;26355;45.528;9.234;2023-08-07T00:41:49;24.90;58.80
40670;DHT22;26355;45.528;9.234;2023-08-07T00:44:15;25.00;58.80
40670;DHT22;26355;45.528;9.234;2023-08-07T00:46:41;25.00;58.80
40670;DHT22;26355;45.528;9.234;2023-08-07T00:49:09;25.00;58.70
40670;DHT22;26355;45.528;9.234;2023-08-07T00:51:35;24.90;58.50
40670;DHT22;26355;45.528;9.234;2023-08-07T00:54:03;24.90;58.70
40670;DHT22;26355;45.528;9.234;2023-08-07T00:56:31;24.90;58.70
40670;DHT22;26355;45.528;9.234;2023-08-07T00:58:58;24.90;58.80
40670;DHT22;26355;45.528;9.234;2023-08-07T01:01:24;24.80;58.60
40670;DHT22;26355;45.528;9.234;2023-08-07T01:03:49;24.80;58.70
40670;DHT22;26355;45.528;9.234;2023-08-07T01:06:15;24.80;58.80
40670;DHT22;26355;45.528;9.234;2023-08-07T01:08:41;24.80;58.70
40670;DHT22;26355;45.528;9.234;2023-08-07T01:16:51;24.70;59.30
40670;DHT22;26355;45.528;9.234;2023-08-07T01:19:28;24.70;59.60
40670;DHT22;26355;45.528;9.234;2023-08-07T01:22:13;24.70;59.70
40670;DHT22;26355;45.528;9.234;2023-08-07T01:24:41;24.60;59.30
40670;DHT22;26355;45.528;9.234;2023-08-07T01:33:24;24.50;58.50
40670;DHT22;26355;45.528;9.234;2023-08-07T01:40:28;24.40;59.00
40670;DHT22;26355;45.528;9.234;2023-08-07T01:47:34;24.30;58.70
40670;DHT22;26355;45.528;9.234;2023-08-07T01:51:15;24.30;58.80
40670;DHT22;26355;45.528;9.234;2023-08-07T01:58:12;24.30;58.80
40670;DHT22;26355;45.528;9.234;2023-08-07T02:04:41;24.30;58.90
40670;DHT22;26355;45.528;9.234;2023-08-07T02:08:10;24.20;59.00
40670;DHT22;26355;45.528;9.234;2023-08-07T02:10:38;24.20;59.40
40670;DHT22;26355;45.528;9.234;2023-08-07T02:13:04;24.20;59.60
40670;DHT22;26355;45.528;9.234;2023-08-07T02:15:29;24.10;59.20
40670;DHT22;26355;45.528;9.234;2023-08-07T02:17:55;24.10;59.40
40670;DHT22;26355;45.528;9.234;2023-08-07T02:20:21;24.10;59.30
40670;DHT22;26355;45.528;9.234;2023-08-07T02:22:47;24.30;59.40
40670;DHT22;26355;45.528;9.234;2023-08-07T02:25:12;24.10;59.20
40670;DHT22;26355;45.528;9.234;2023-08-07T02:27:38;24.20;59.20
40670;DHT22;26355;45.528;9.234;2023-08-07T02:30:05;24.30;59.30
40670;DHT22;26355;45.528;9.234;2023-08-07T02:32:31;24.20;59.20
40670;DHT22;26355;45.528;9.234;2023-08-07T02:34:56;24.10;59.20
40670;DHT22;26355;45.528;9.234;2023-08-07T02:37:22;24.20;59.20
40670;DHT22;26355;45.528;9.234;2023-08-07T02:39:48;24.10;59.20
40670;DHT22;26355;45.528;9.234;2023-08-07T02:42:13;24.20;59.30
40670;DHT22;26355;45.528;9.234;2023-08-07T02:44:39;24.10;59.30
40670;DHT22;26355;45.528;9.234;2023-08-07T02:47:06;24.10;59.40
40670;DHT22;26355;45.528;9.234;2023-08-07T02:49:32;24.10;59.20
40670;DHT22;26355;45.528;9.234;2023-08-07T02:51:57;24.10;59.40
40670;DHT22;26355;45.528;9.234;2023-08-07T02:54:24;24.00;59.30
40670;DHT22;26355;45.528;9.234;2023-08-07T02:56:50;24.00;59.30
40670;DHT22;26355;45.528;9.234;2023-08-07T02:59:16;24.00;59.40
40670;DHT22;26355;45.528;9.234;2023-08-07T03:01:43;24.10;59.50
40670;DHT22;26355;45.528;9.234;2023-08-07T03:04:09;24.00;59.50
40670;DHT22;26355;45.528;9.234;2023-08-07T03:06:35;24.00;59.60
40670;DHT22;26355;45.528;9.234;2023-08-07T03:09:00;24.00;59.70
40670;DHT22;26355;45.528;9.234;2023-08-07T03:11:26;24.00;59.90
40670;DHT22;26355;45.528;9.234;2023-08-07T03:13:52;24.00;59.80
40670;DHT22;26355;45.528;9.234;2023-08-07T03:16:17;24.00;60.00
40670;DHT22;26355;45.528;9.234;2023-08-07T03:18:43;24.00;59.90
40670;DHT22;26355;45.528;9.234;2023-08-07T03:21:09;24.00;60.20
40670;DHT22;26355;45.528;9.234;2023-08-07T03:23:34;24.00;59.80
40670;DHT22;26355;45.528;9.234;2023-08-07T03:26:09;23.90;59.80
40670;DHT22;26355;45.528;9.234;2023-08-07T03:28:35;24.00;59.80
40670;DHT22;26355;45.528;9.234;2023-08-07T03:31:01;23.90;59.80
40670;DHT22;26355;45.528;9.234;2023-08-07T03:33:27;23.80;59.90
40670;DHT22;26355;45.528;9.234;2023-08-07T03:35:53;23.70;59.70
40670;DHT22;26355;45.528;9.234;2023-08-07T03:38:18;23.80;59.90
40670;DHT22;26355;45.528;9.234;2023-08-07T03:40:44;23.70;59.90
40670;DHT22;26355;45.528;9.234;2023-08-07T03:43:10;23.70;59.90
40670;DHT22;26355;45.528;9.234;2023-08-07T03:45:36;23.70;60.00
40670;DHT22;26355;45.528;9.234;2023-08-07T03:48:01;23.70;59.90
40670;DHT22;26355;45.528;9.234;2023-08-07T03:50:27;23.60;60.00
40670;DHT22;26355;45.528;9.234;2023-08-07T03:52:53;23.60;59.70
40670;DHT22;26355;45.528;9.234;2023-08-07T03:55:18;23.60;59.90
40670;DHT22;26355;45.528;9.234;2023-08-07T03:57:44;23.60;60.00
40670;DHT22;26355;45.528;9.234;2023-08-07T04:00:10;23.60;60.00
40670;DHT22;26355;45.528;9.234;2023-08-07T04:02:37;23.60;60.00
40670;DHT22;26355;45.528;9.234;2023-08-07T04:05:02;23.50;60.10
40670;DHT22;26355;45.528;9.234;2023-08-07T04:07:28;23.60;60.10
40670;DHT22;26355;45.528;9.234;2023-08-07T04:09:54;23.50;60.20
40670;DHT22;26355;45.528;9.234;2023-08-07T04:12:19;23.50;60.10
40670;DHT22;26355;45.528;9.234;2023-08-07T04:14:45;23.50;60.20
40670;DHT22;26355;45.528;9.234;2023-08-07T04:17:10;23.50;60.20
40670;DHT22;26355;45.528;9.234;2023-08-07T04:19:36;23.60;60.30
40670;DHT22;26355;45.528;9.234;2023-08-07T04:22:02;23.50;60.30
40670;DHT22;26355;45.528;9.234;2023-08-07T04:24:28;23.60;60.50
40670;DHT22;26355;45.528;9.234;2023-08-07T04:26:53;23.50;60.40
40670;DHT22;26355;45.528;9.234;2023-08-07T04:29:19;23.50;60.50
40670;DHT22;26355;45.528;9.234;2023-08-07T04:31:45;23.60;60.50
40670;DHT22;26355;45.528;9.234;2023-08-07T04:34:10;23.60;60.50
40670;DHT22;26355;45.528;9.234;2023-08-07T04:36:37;23.50;60.50
40670;DHT22;26355;45.528;9.234;2023-08-07T04:39:03;23.60;60.70
40670;DHT22;26355;45.528;9.234;2023-08-07T04:41:29;23.50;60.60
40670;DHT22;26355;45.528;9.234;2023-08-07T04:43:54;23.50;60.70
40670;DHT22;26355;45.528;9.234;2023-08-07T04:46:20;23.50;60.90
40670;DHT22;26355;45.528;9.234;2023-08-07T04:48:46;23.60;60.80
40670;DHT22;26355;45.528;9.234;2023-08-07T04:51:12;23.60;60.70
40670;DHT22;26355;45.528;9.234;2023-08-07T04:53:39;23.50;60.40
40670;DHT22;26355;45.528;9.234;2023-08-07T04:56:05;23.60;60.30
40670;DHT22;26355;45.528;9.234;2023-08-07T04:58:31;23.60;60.30
40670;DHT22;26355;45.528;9.234;2023-08-07T05:00:57;23.50;60.20
40670;DHT22;26355;45.528;9.234;2023-08-07T05:03:23;23.60;60.30
40670;DHT22;26355;45.528;9.234;2023-08-07T05:05:49;23.50;60.30
40670;DHT22;26355;45.528;9.234;2023-08-07T05:08:15;23.50;60.70
40670;DHT22;26355;45.528;9.234;2023-08-07T05:10:41;23.60;60.10
40670;DHT22;26355;45.528;9.234;2023-08-07T05:13:07;23.60;60.00
40670;DHT22;26355;45.528;9.234;2023-08-07T05:15:32;23.60;60.20
40670;DHT22;26355;45.528;9.234;2023-08-07T05:17:58;23.70;60.20
40670;DHT22;26355;45.528;9.234;2023-08-07T05:20:24;23.70;60.10
40670;DHT22;26355;45.528;9.234;2023-08-07T05:22:49;23.70;60.10
40670;DHT22;26355;45.528;9.234;2023-08-07T05:25:16;23.70;60.30
40670;DHT22;26355;45.528;9.234;2023-08-07T05:27:45;23.80;61.10
40670;DHT22;26355;45.528;9.234;2023-08-07T05:30:12;23.90;60.60
40670;DHT22;26355;45.528;9.234;2023-08-07T05:32:37;23.80;60.70
40670;DHT22;26355;45.528;9.234;2023-08-07T05:35:06;23.80;60.80
40670;DHT22;26355;45.528;9.234;2023-08-07T05:37:35;23.80;60.90
40670;DHT22;26355;45.528;9.234;2023-08-07T05:40:02;23.80;61.60
40670;DHT22;26355;45.528;9.234;2023-08-07T05:42:28;23.80;61.90
40670;DHT22;26355;45.528;9.234;2023-08-07T05:44:53;23.80;62.10
40670;DHT22;26355;45.528;9.234;2023-08-07T05:47:19;23.80;61.80
40670;DHT22;26355;45.528;9.234;2023-08-07T05:49:45;23.80;61.50
40670;DHT22;26355;45.528;9.234;2023-08-07T05:52:10;23.90;61.20
40670;DHT22;26355;45.528;9.234;2023-08-07T05:54:36;23.90;60.60
40670;DHT22;26355;45.528;9.234;2023-08-07T05:57:01;24.00;60.80
40670;DHT22;26355;45.528;9.234;2023-08-07T05:59:27;24.00;60.70
40670;DHT22;26355;45.528;9.234;2023-08-07T06:01:53;24.00;60.50
40670;DHT22;26355;45.528;9.234;2023-08-07T06:04:21;24.10;60.30
40670;DHT22;26355;45.528;9.234;2023-08-07T06:06:47;24.20;60.20
40670;DHT22;26355;45.528;9.234;2023-08-07T06:09:12;24.30;60.40
40670;DHT22;26355;45.528;9.234;2023-08-07T06:11:41;24.40;60.90
40670;DHT22;26355;45.528;9.234;2023-08-07T06:14:06;24.40;62.00
40670;DHT22;26355;45.528;9.234;2023-08-07T06:16:32;24.50;62.50
40670;DHT22;26355;45.528;9.234;2023-08-07T06:18:58;24.40;61.10
40670;DHT22;26355;45.528;9.234;2023-08-07T06:21:24;24.50;60.40
40670;DHT22;26355;45.528;9.234;2023-08-07T06:23:49;24.60;60.30
40670;DHT22;26355;45.528;9.234;2023-08-07T06:26:15;24.60;59.80
40670;DHT22;26355;45.528;9.234;2023-08-07T06:28:42;24.80;59.80
40670;DHT22;26355;45.528;9.234;2023-08-07T06:31:10;25.00;59.80
40670;DHT22;26355;45.528;9.234;2023-08-07T06:33:36;25.10;59.30
40670;DHT22;26355;45.528;9.234;2023-08-07T06:36:02;25.40;59.20
40670;DHT22;26355;45.528;9.234;2023-08-07T06:38:28;25.70;59.20
40670;DHT22;26355;45.528;9.234;2023-08-07T06:40:54;26.10;59.00
40670;DHT22;26355;45.528;9.234;2023-08-07T06:43:19;26.30;58.80
40670;DHT22;26355;45.528;9.234;2023-08-07T06:45:49;26.50;58.40
40670;DHT22;26355;45.528;9.234;2023-08-07T06:48:15;26.70;58.30
40670;DHT22;26355;45.528;9.234;2023-08-07T06:50:41;27.00;58.50
40670;DHT22;26355;45.528;9.234;2023-08-07T06:53:07;27.10;58.30
40670;DHT22;26355;45.528;9.234;2023-08-07T06:55:32;27.20;58.20
40670;DHT22;26355;45.528;9.234;2023-08-07T06:57:58;27.30;58.00
40670;DHT22;26355;45.528;9.234;2023-08-07T07:00:24;27.40;57.80
40670;DHT22;26355;45.528;9.234;2023-08-07T07:02:50;27.50;57.90
40670;DHT22;26355;45.528;9.234;2023-08-07T07:05:15;27.50;57.80
40670;DHT22;26355;45.528;9.234;2023-08-07T07:07:41;27.50;58.10
40670;DHT22;26355;45.528;9.234;2023-08-07T07:10:07;27.70;57.60
40670;DHT22;26355;45.528;9.234;2023-08-07T07:12:33;27.70;57.60
40670;DHT22;26355;45.528;9.234;2023-08-07T07:14:58;27.70;57.40
40670;DHT22;26355;45.528;9.234;2023-08-07T07:17:24;27.70;56.60
40670;DHT22;26355;45.528;9.234;2023-08-07T07:19:49;27.60;56.70
40670;DHT22;26355;45.528;9.234;2023-08-07T07:22:15;27.70;56.30
40670;DHT22;26355;45.528;9.234;2023-08-07T07:24:40;27.60;55.90
40670;DHT22;26355;45.528;9.234;2023-08-07T07:27:06;27.60;55.70
40670;DHT22;26355;45.528;9.234;2023-08-07T07:29:32;27.60;55.80
40670;DHT22;26355;45.528;9.234;2023-08-07T07:31:57;27.70;55.30
40670;DHT22;26355;45.528;9.234;2023-08-07T07:34:23;27.60;55.00
40670;DHT22;26355;45.528;9.234;2023-08-07T07:36:49;27.60;55.20
40670;DHT22;26355;45.528;9.234;2023-08-07T07:39:16;27.60;55.00
40670;DHT22;26355;45.528;9.234;2023-08-07T07:41:41;27.70;54.90
40670;DHT22;26355;45.528;9.234;2023-08-07T07:44:07;27.60;54.80
40670;DHT22;26355;45.528;9.234;2023-08-07T07:46:33;27.60;54.90
40670;DHT22;26355;45.528;9.234;2023-08-07T07:48:59;27.60;55.00
40670;DHT22;26355;45.528;9.234;2023-08-07T07:51:24;27.70;55.00
40670;DHT22;26355;45.528;9.234;2023-08-07T07:53:50;27.60;54.90
40670;DHT22;26355;45.528;9.234;2023-08-07T07:56:16;27.70;55.20
40670;DHT22;26355;45.528;9.234;2023-08-07T07:58:41;27.60;55.30
40670;DHT22;26355;45.528;9.234;2023-08-07T08:01:07;27.70;55.50
40670;DHT22;26355;45.528;9.234;2023-08-07T08:03:33;27.70;55.20
40670;DHT22;26355;45.528;9.234;2023-08-07T08:05:59;27.70;55.20
40670;DHT22;26355;45.528;9.234;2023-08-07T08:08:25;27.70;55.30
40670;DHT22;26355;45.528;9.234;2023-08-07T08:10:51;27.70;56.00
40670;DHT22;26355;45.528;9.234;2023-08-07T08:13:17;27.70;55.00
40670;DHT22;26355;45.528;9.234;2023-08-07T08:15:43;27.70;55.00
40670;DHT22;26355;45.528;9.234;2023-08-07T08:18:09;27.70;55.00
40670;DHT22;26355;45.528;9.234;2023-08-07T08:20:35;27.70;55.00
40670;DHT22;26355;45.528;9.234;2023-08-07T08:23:00;27.60;55.00
40670;DHT22;26355;45.528;9.234;2023-08-07T08:25:26;27.70;55.00
40670;DHT22;26355;45.528;9.234;2023-08-07T08:27:52;27.70;55.00
40670;DHT22;26355;45.528;9.234;2023-08-07T08:30:17;27.70;55.10
40670;DHT22;26355;45.528;9.234;2023-08-07T08:32:43;27.80;55.40
40670;DHT22;26355;45.528;9.234;2023-08-07T08:35:09;27.80;54.90
40670;DHT22;26355;45.528;9.234;2023-08-07T08:37:35;27.80;55.00
40670;DHT22;26355;45.528;9.234;2023-08-07T08:40:00;27.80;55.00
40670;DHT22;26355;45.528;9.234;2023-08-07T08:42:26;27.80;55.20
40670;DHT22;26355;45.528;9.234;2023-08-07T08:44:56;27.80;55.10
40670;DHT22;26355;45.528;9.234;2023-08-07T08:47:22;27.70;55.50
40670;DHT22;26355;45.528;9.234;2023-08-07T08:50:01;27.80;55.50
40670;DHT22;26355;45.528;9.234;2023-08-07T08:52:28;27.90;55.60
40670;DHT22;26355;45.528;9.234;2023-08-07T08:54:56;27.90;55.80
40670;DHT22;26355;45.528;9.234;2023-08-07T08:57:22;28.00;55.60
40670;DHT22;26355;45.528;9.234;2023-08-07T08:59:48;28.10;55.40
40670;DHT22;26355;45.528;9.234;2023-08-07T09:02:15;28.00;54.70
40670;DHT22;26355;45.528;9.234;2023-08-07T09:04:41;28.00;54.70
40670;DHT22;26355;45.528;9.234;2023-08-07T09:07:08;28.10;54.80
40670;DHT22;26355;45.528;9.234;2023-08-07T09:09:34;28.10;54.80
40670;DHT22;26355;45.528;9.234;2023-08-07T09:12:01;28.10;54.00
40670;DHT22;26355;45.528;9.234;2023-08-07T09:14:30;28.20;54.60
40670;DHT22;26355;45.528;9.234;2023-08-07T09:16:59;28.10;54.10
40670;DHT22;26355;45.528;9.234;2023-08-07T09:19:25;28.30;54.30
40670;DHT22;26355;45.528;9.234;2023-08-07T09:21:51;28.30;54.20
40670;DHT22;26355;45.528;9.234;2023-08-07T09:24:17;28.30;54.30
40670;DHT22;26355;45.528;9.234;2023-08-07T09:26:44;28.40;54.50
40670;DHT22;26355;45.528;9.234;2023-08-07T09:29:10;28.40;54.00
40670;DHT22;26355;45.528;9.234;2023-08-07T09:31:37;28.50;54.70
40670;DHT22;26355;45.528;9.234;2023-08-07T09:34:03;28.50;54.30
40670;DHT22;26355;45.528;9.234;2023-08-07T09:36:31;28.30;54.50
40670;DHT22;26355;45.528;9.234;2023-08-07T09:39:00;28.30;55.20
40670;DHT22;26355;45.528;9.234;2023-08-07T09:41:26;28.40;54.70
40670;DHT22;26355;45.528;9.234;2023-08-07T09:43:54;28.50;55.00
40670;DHT22;26355;45.528;9.234;2023-08-07T09:46:19;28.50;54.80
40670;DHT22;26355;45.528;9.234;2023-08-07T09:48:45;28.60;54.40
40670;DHT22;26355;45.528;9.234;2023-08-07T09:51:11;28.70;54.90
40670;DHT22;26355;45.528;9.234;2023-08-07T09:53:37;28.80;55.10
40670;DHT22;26355;45.528;9.234;2023-08-07T09:56:02;28.90;55.20
40670;DHT22;26355;45.528;9.234;2023-08-07T09:58:29;28.90;55.20
40670;DHT22;26355;45.528;9.234;2023-08-07T10:00:54;29.00;55.10
40670;DHT22;26355;45.528;9.234;2023-08-07T10:03:25;29.00;54.80
40670;DHT22;26355;45.528;9.234;2023-08-07T10:05:51;29.00;53.80
40670;DHT22;26355;45.528;9.234;2023-08-07T10:08:16;28.90;53.50
40670;DHT22;26355;45.528;9.234;2023-08-07T10:10:43;28.90;54.00
40670;DHT22;26355;45.528;9.234;2023-08-07T10:13:11;28.90;53.80
40670;DHT22;26355;45.528;9.234;2023-08-07T10:15:37;28.90;53.80
40670;DHT22;26355;45.528;9.234;2023-08-07T10:18:05;29.00;53.20
40670;DHT22;26355;45.528;9.234;2023-08-07T10:20:31;29.00;53.30
40670;DHT22;26355;45.528;9.234;2023-08-07T10:23:05;29.00;53.80
40670;DHT22;26355;45.528;9.234;2023-08-07T10:25:32;29.10;53.90
40670;DHT22;26355;45.528;9.234;2023-08-07T10:27:59;29.20;54.00
40670;DHT22;26355;45.528;9.234;2023-08-07T10:30:26;29.30;54.10
40670;DHT22;26355;45.528;9.234;2023-08-07T10:32:52;29.30;53.40
40670;DHT22;26355;45.528;9.234;2023-08-07T10:35:26;29.30;53.30
40670;DHT22;26355;45.528;9.234;2023-08-07T10:37:54;29.30;53.50
40670;DHT22;26355;45.528;9.234;2023-08-07T10:40:20;29.50;54.20
40670;DHT22;26355;45.528;9.234;2023-08-07T10:42:58;29.40;53.80
40670;DHT22;26355;45.528;9.234;2023-08-07T10:45:24;29.60;54.00
40670;DHT22;26355;45.528;9.234;2023-08-07T10:50:34;29.50;53.50
40670;DHT22;26355;45.528;9.234;2023-08-07T10:53:02;29.50;54.20
40670;DHT22;26355;45.528;9.234;2023-08-07T10:55:44;29.50;53.20
40670;DHT22;26355;45.528;9.234;2023-08-07T10:58:26;29.50;53.70
40670;DHT22;26355;45.528;9.234;2023-08-07T11:03:43;29.50;54.10
40670;DHT22;26355;45.528;9.234;2023-08-07T11:06:10;29.50;54.20
40670;DHT22;26355;45.528;9.234;2023-08-07T11:08:36;29.70;54.00
40670;DHT22;26355;45.528;9.234;2023-08-07T11:11:05;29.70;53.50
40670;DHT22;26355;45.528;9.234;2023-08-07T11:13:32;29.70;53.40
40670;DHT22;26355;45.528;9.234;2023-08-07T11:15:58;29.80;53.00
40670;DHT22;26355;45.528;9.234;2023-08-07T11:18:25;29.70;53.30
40670;DHT22;26355;45.528;9.234;2023-08-07T11:20:52;29.80;53.70
40670;DHT22;26355;45.528;9.234;2023-08-07T11:23:23;29.80;53.70
40670;DHT22;26355;45.528;9.234;2023-08-07T11:25:49;29.80;53.30
40670;DHT22;26355;45.528;9.234;2023-08-07T11:28:18;29.90;53.50
40670;DHT22;26355;45.528;9.234;2023-08-07T11:30:46;30.00;53.90
40670;DHT22;26355;45.528;9.234;2023-08-07T11:33:12;30.00;54.10
40670;DHT22;26355;45.528;9.234;2023-08-07T11:35:42;30.10;53.50
40670;DHT22;26355;45.528;9.234;2023-08-07T11:38:07;30.20;53.10
40670;DHT22;26355;45.528;9.234;2023-08-07T11:40:34;30.00;52.90
40670;DHT22;26355;45.528;9.234;2023-08-07T11:42:59;29.90;53.00
40670;DHT22;26355;45.528;9.234;2023-08-07T11:45:25;30.00;52.90
40670;DHT22;26355;45.528;9.234;2023-08-07T11:47:51;30.00;53.10
40670;DHT22;26355;45.528;9.234;2023-08-07T11:50:17;30.00;53.10
40670;DHT22;26355;45.528;9.234;2023-08-07T11:52:43;30.10;53.20
40670;DHT22;26355;45.528;9.234;2023-08-07T11:55:08;30.20;53.20
40670;DHT22;26355;45.528;9.234;2023-08-07T11:57:38;30.20;52.40
40670;DHT22;26355;45.528;9.234;2023-08-07T12:00:07;30.30;51.90
40670;DHT22;26355;45.528;9.234;2023-08-07T12:02:37;30.30;52.00
40670;DHT22;26355;45.528;9.234;2023-08-07T12:05:03;30.40;52.00
40670;DHT22;26355;45.528;9.234;2023-08-07T12:07:29;30.40;52.00
40670;DHT22;26355;45.528;9.234;2023-08-07T12:09:55;30.40;51.60
40670;DHT22;26355;45.528;9.234;2023-08-07T12:12:20;30.40;51.60
40670;DHT22;26355;45.528;9.234;2023-08-07T12:14:46;30.50;51.70
40670;DHT22;26355;45.528;9.234;2023-08-07T12:17:11;30.50;51.60
40670;DHT22;26355;45.528;9.234;2023-08-07T12:19:40;30.40;51.70
40670;DHT22;26355;45.528;9.234;2023-08-07T12:22:10;30.50;51.60
40670;DHT22;26355;45.528;9.234;2023-08-07T12:24:36;30.50;51.60
40670;DHT22;26355;45.528;9.234;2023-08-07T12:27:05;30.60;51.10
40670;DHT22;26355;45.528;9.234;2023-08-07T12:29:31;30.60;50.90
40670;DHT22;26355;45.528;9.234;2023-08-07T12:31:56;30.50;50.80
40670;DHT22;26355;45.528;9.234;2023-08-07T12:34:24;30.40;50.90
40670;DHT22;26355;45.528;9.234;2023-08-07T12:36:49;30.40;51.00
40670;DHT22;26355;45.528;9.234;2023-08-07T12:39:15;30.40;51.00
40670;DHT22;26355;45.528;9.234;2023-08-07T12:41:41;30.50;50.70
40670;DHT22;26355;45.528;9.234;2023-08-07T12:44:06;30.40;50.00
40670;DHT22;26355;45.528;9.234;2023-08-07T12:46:32;30.50;49.90
40670;DHT22;26355;45.528;9.234;2023-08-07T12:48:57;30.50;50.30
40670;DHT22;26355;45.528;9.234;2023-08-07T12:51:23;30.40;49.80
40670;DHT22;26355;45.528;9.234;2023-08-07T12:53:49;30.40;49.80
40670;DHT22;26355;45.528;9.234;2023-08-07T12:56:16;30.50;50.20
40670;DHT22;26355;45.528;9.234;2023-08-07T12:58:42;30.50;50.10
40670;DHT22;26355;45.528;9.234;2023-08-07T13:01:09;30.40;48.80
40670;DHT22;26355;45.528;9.234;2023-08-07T13:03:35;30.50;48.60
40670;DHT22;26355;45.528;9.234;2023-08-07T13:06:00;30.50;47.60
40670;DHT22;26355;45.528;9.234;2023-08-07T13:08:26;30.40;47.30
40670;DHT22;26355;45.528;9.234;2023-08-07T13:10:52;30.40;47.60
40670;DHT22;26355;45.528;9.234;2023-08-07T13:13:19;30.40;48.10
40670;DHT22;26355;45.528;9.234;2023-08-07T13:15:44;30.30;47.40
40670;DHT22;26355;45.528;9.234;2023-08-07T13:18:10;30.50;48.40
40670;DHT22;26355;45.528;9.234;2023-08-07T13:20:36;30.50;48.30
40670;DHT22;26355;45.528;9.234;2023-08-07T13:23:02;30.60;47.70
40670;DHT22;26355;45.528;9.234;2023-08-07T13:25:29;30.50;47.30
40670;DHT22;26355;45.528;9.234;2023-08-07T13:27:55;30.50;47.00
40670;DHT22;26355;45.528;9.234;2023-08-07T13:30:20;30.50;47.20
40670;DHT22;26355;45.528;9.234;2023-08-07T13:32:46;30.50;47.50
40670;DHT22;26355;45.528;9.234;2023-08-07T13:35:12;30.50;47.60
40670;DHT22;26355;45.528;9.234;2023-08-07T13:37:37;30.50;47.40
40670;DHT22;26355;45.528;9.234;2023-08-07T13:40:04;30.50;47.50
40670;DHT22;26355;45.528;9.234;2023-08-07T13:42:30;30.50;47.60
40670;DHT22;26355;45.528;9.234;2023-08-07T13:44:58;30.50;48.10
40670;DHT22;26355;45.528;9.234;2023-08-07T13:47:23;30.50;47.80
40670;DHT22;26355;45.528;9.234;2023-08-07T13:49:52;30.40;47.10
40670;DHT22;26355;45.528;9.234;2023-08-07T13:52:18;30.50;47.70
40670;DHT22;26355;45.528;9.234;2023-08-07T13:54:44;30.50;47.90
40670;DHT22;26355;45.528;9.234;2023-08-07T13:57:09;30.50;47.90
40670;DHT22;26355;45.528;9.234;2023-08-07T13:59:35;30.60;48.00
40670;DHT22;26355;45.528;9.234;2023-08-07T14:02:00;30.60;47.80
40670;DHT22;26355;45.528;9.234;2023-08-07T14:04:26;30.60;48.00
40670;DHT22;26355;45.528;9.234;2023-08-07T14:06:52;30.60;48.10
40670;DHT22;26355;45.528;9.234;2023-08-07T14:09:17;30.60;48.40
40670;DHT22;26355;45.528;9.234;2023-08-07T14:11:47;30.60;48.50
40670;DHT22;26355;45.528;9.234;2023-08-07T14:14:13;30.60;47.90
40670;DHT22;26355;45.528;9.234;2023-08-07T14:16:38;30.50;47.60
40670;DHT22;26355;45.528;9.234;2023-08-07T14:19:04;30.50;47.60
40670;DHT22;26355;45.528;9.234;2023-08-07T14:21:29;30.40;47.70
40670;DHT22;26355;45.528;9.234;2023-08-07T14:23:55;30.50;48.00
40670;DHT22;26355;45.528;9.234;2023-08-07T14:26:21;30.40;47.80
40670;DHT22;26355;45.528;9.234;2023-08-07T14:28:46;30.40;47.80
40670;DHT22;26355;45.528;9.234;2023-08-07T14:31:12;30.40;47.80
40670;DHT22;26355;45.528;9.234;2023-08-07T14:33:38;30.40;47.70
40670;DHT22;26355;45.528;9.234;2023-08-07T14:36:04;30.30;47.70
40670;DHT22;26355;45.528;9.234;2023-08-07T14:38:30;30.30;47.90
40670;DHT22;26355;45.528;9.234;2023-08-07T14:40:56;30.30;47.90
40670;DHT22;26355;45.528;9.234;2023-08-07T14:43:22;30.20;48.50
40670;DHT22;26355;45.528;9.234;2023-08-07T14:45:48;30.20;48.00
40670;DHT22;26355;45.528;9.234;2023-08-07T14:48:14;30.20;48.20
40670;DHT22;26355;45.528;9.234;2023-08-07T14:51:23;30.20;48.30
40670;DHT22;26355;45.528;9.234;2023-08-07T14:54:16;30.10;47.70
40670;DHT22;26355;45.528;9.234;2023-08-07T14:57:47;30.00;47.30
40670;DHT22;26355;45.528;9.234;2023-08-07T15:01:15;30.00;47.40
40670;DHT22;26355;45.528;9.234;2023-08-07T15:08:22;30.00;47.40
40670;DHT22;26355;45.528;9.234;2023-08-07T15:11:46;29.90;48.10
40670;DHT22;26355;45.528;9.234;2023-08-07T15:14:58;30.00;47.80
40670;DHT22;26355;45.528;9.234;2023-08-07T15:18:28;29.90;47.50
40670;DHT22;26355;45.528;9.234;2023-08-07T15:25:50;29.80;47.60
40670;DHT22;26355;45.528;9.234;2023-08-07T15:35:13;29.80;48.00
40670;DHT22;26355;45.528;9.234;2023-08-07T15:38:50;29.80;48.10
40670;DHT22;26355;45.528;9.234;2023-08-07T15:42:06;29.80;48.30
40670;DHT22;26355;45.528;9.234;2023-08-07T15:44:32;29.80;48.20
40670;DHT22;26355;45.528;9.234;2023-08-07T15:46:58;29.80;48.20
40670;DHT22;26355;45.528;9.234;2023-08-07T15:49:24;29.80;48.00
40670;DHT22;26355;45.528;9.234;2023-08-07T15:51:51;29.80;47.70
40670;DHT22;26355;45.528;9.234;2023-08-07T15:54:17;29.80;48.20
40670;DHT22;26355;45.528;9.234;2023-08-07T15:56:42;29.80;48.20
40670;DHT22;26355;45.528;9.234;2023-08-07T15:59:08;29.70;48.10
40670;DHT22;26355;45.528;9.234;2023-08-07T16:01:33;29.70;48.00
40670;DHT22;26355;45.528;9.234;2023-08-07T16:03:59;29.70;48.70
40670;DHT22;26355;45.528;9.234;2023-08-07T16:06:26;29.70;48.60
40670;DHT22;26355;45.528;9.234;2023-08-07T16:08:52;29.80;49.10
40670;DHT22;26355;45.528;9.234;2023-08-07T16:11:20;29.80;49.40
40670;DHT22;26355;45.528;9.234;2023-08-07T16:13:46;29.70;49.10
40670;DHT22;26355;45.528;9.234;2023-08-07T16:16:11;29.80;49.30
40670;DHT22;26355;45.528;9.234;2023-08-07T16:18:37;29.70;49.40
40670;DHT22;26355;45.528;9.234;2023-08-07T16:21:02;29.70;49.50
40670;DHT22;26355;45.528;9.234;2023-08-07T16:23:28;29.70;49.60
40670;DHT22;26355;45.528;9.234;2023-08-07T16:25:54;29.70;49.90